sensor_id;sensor_type;location;lat;lon;timestamp;pressure;altitude;pressure_sealevel;temperature;humidity
49999;BME280;68071;45.062;7.356;2024-01-07T00:00:36;93360.94;;;7.76;37.44
49999;BME280;68071;45.062;7.356;2024-01-07T00:03:43;93380.13;;;7.63;38.13
49999;BME280;68071;45.062;7.356;2024-01-07T00:06:47;93353.84;;;7.62;37.58
49999;BME280;68071;45.062;7.356;2024-01-07T00:09:52;93364.31;;;7.67;37.69
49999;BME280;68071;45.062;7.356;2024-01-07T00:13:24;93374.53;;;7.67;37.65
49999;BME280;68071;45.062;7.356;2024-01-07T00:16:40;93356.53;;;7.66;37.23
49999;BME280;68071;45.062;7.356;2024-01-07T00:19:44;93355.91;;;7.58;38.83
49999;BME280;68071;45.062;7.356;2024-01-07T00:22:49;93351.88;;;7.63;37.74
49999;BME280;68071;45.062;7.356;2024-01-07T00:25:54;93348.88;;;7.57;37.88
49999;BME280;68071;45.062;7.356;2024-01-07T00:29:01;93365.97;;;7.65;38.09
49999;BME280;68071;45.062;7.356;2024-01-07T00:32:06;93354.81;;;7.55;38.13
49999;BME280;68071;45.062;7.356;2024-01-07T00:35:10;93369.66;;;7.58;38.02
49999;BME280;68071;45.062;7.356;2024-01-07T00:38:14;93347.41;;;7.52;38.04
49999;BME280;68071;45.062;7.356;2024-01-07T00:41:20;93354.66;;;7.46;38.44
49999;BME280;68071;45.062;7.356;2024-01-07T00:44:25;93361.16;;;7.52;38.26
49999;BME280;68071;45.062;7.356;2024-01-07T00:47:31;93340.59;;;7.44;37.74
49999;BME280;68071;45.062;7.356;2024-01-07T00:50:36;93362.66;;;7.40;38.52
49999;BME280;68071;45.062;7.356;2024-01-07T00:53:47;93353.28;;;7.38;38.53
49999;BME280;68071;45.062;7.356;2024-01-07T00:56:51;93358.41;;;7.52;38.27
49999;BME280;68071;45.062;7.356;2024-01-07T00:59:55;93361.53;;;7.38;38.59
49999;BME280;68071;45.062;7.356;2024-01-07T01:02:59;93352.34;;;7.45;38.45
49999;BME280;68071;45.062;7.356;2024-01-07T01:06:04;93360.75;;;7.54;37.90
49999;BME280;68071;45.062;7.356;2024-01-07T01:09:12;93365.69;;;7.59;37.32
49999;BME280;68071;45.062;7.356;2024-01-07T01:12:16;93375.34;;;7.51;38.16
49999;BME280;68071;45.062;7.356;2024-01-07T01:15:22;93371.75;;;7.54;37.48
49999;BME280;68071;45.062;7.356;2024-01-07T01:18:32;93388.25;;;7.54;37.80
49999;BME280;68071;45.062;7.356;2024-01-07T01:21:36;93381.78;;;7.61;37.85
49999;BME280;68071;45.062;7.356;2024-01-07T01:24:40;93393.28;;;7.55;37.92
49999;BME280;68071;45.062;7.356;2024-01-07T01:27:44;93421.66;;;7.52;38.16
49999;BME280;68071;45.062;7.356;2024-01-07T01:30:49;93373.88;;;7.63;37.44
49999;BME280;68071;45.062;7.356;2024-01-07T01:33:53;93382.75;;;7.37;39.14
49999;BME280;68071;45.062;7.356;2024-01-07T01:37:23;93382.63;;;7.57;37.60
49999;BME280;68071;45.062;7.356;2024-01-07T01:40:28;93369.50;;;7.49;38.20
49999;BME280;68071;45.062;7.356;2024-01-07T01:43:38;93373.09;;;7.62;37.88
49999;BME280;68071;45.062;7.356;2024-01-07T01:46:45;93378.59;;;7.62;37.49
49999;BME280;68071;45.062;7.356;2024-01-07T01:49:50;93376.81;;;7.55;37.98
49999;BME280;68071;45.062;7.356;2024-01-07T01:53:08;93375.56;;;7.73;37.28
49999;BME280;68071;45.062;7.356;2024-01-07T01:56:13;93384.63;;;7.86;36.78
49999;BME280;68071;45.062;7.356;2024-01-07T01:59:20;93383.75;;;7.60;38.75
49999;BME280;68071;45.062;7.356;2024-01-07T02:02:25;93419.47;;;7.60;37.38
49999;BME280;68071;45.062;7.356;2024-01-07T02:05:35;93371.47;;;7.65;37.75
49999;BME280;68071;45.062;7.356;2024-01-07T02:08:43;93404.31;;;7.85;36.55
49999;BME280;68071;45.062;7.356;2024-01-07T02:12:03;93379.97;;;7.70;37.37
49999;BME280;68071;45.062;7.356;2024-01-07T02:15:08;93381.94;;;7.53;37.94
49999;BME280;68071;45.062;7.356;2024-01-07T02:18:14;93381.41;;;7.75;37.24
49999;BME280;68071;45.062;7.356;2024-01-07T02:21:18;93388.75;;;7.49;37.98
49999;BME280;68071;45.062;7.356;2024-01-07T02:24:22;93397.00;;;7.49;37.50
49999;BME280;68071;45.062;7.356;2024-01-07T02:27:28;93385.53;;;7.67;36.98
49999;BME280;68071;45.062;7.356;2024-01-07T02:30:34;93382.66;;;7.41;38.06
49999;BME280;68071;45.062;7.356;2024-01-07T02:33:38;93389.72;;;7.42;37.63
49999;BME280;68071;45.062;7.356;2024-01-07T02:36:50;93391.41;;;7.52;38.21
49999;BME280;68071;45.062;7.356;2024-01-07T02:39:54;93374.41;;;7.41;37.65
49999;BME280;68071;45.062;7.356;2024-01-07T02:43:04;93382.63;;;7.57;37.23
49999;BME280;68071;45.062;7.356;2024-01-07T02:46:11;93390.56;;;7.39;37.96
49999;BME280;68071;45.062;7.356;2024-01-07T02:49:16;93397.41;;;7.47;38.58
49999;BME280;68071;45.062;7.356;2024-01-07T02:52:21;93399.66;;;7.36;37.94
49999;BME280;68071;45.062;7.356;2024-01-07T02:55:25;93387.13;;;7.35;38.02
49999;BME280;68071;45.062;7.356;2024-01-07T02:58:29;93408.78;;;7.33;38.06
49999;BME280;68071;45.062;7.356;2024-01-07T03:01:44;93402.16;;;7.30;38.94
49999;BME280;68071;45.062;7.356;2024-01-07T03:04:51;93401.91;;;7.24;39.38
49999;BME280;68071;45.062;7.356;2024-01-07T03:07:55;93391.06;;;7.34;40.59
49999;BME280;68071;45.062;7.356;2024-01-07T03:11:04;93390.59;;;7.22;38.21
49999;BME280;68071;45.062;7.356;2024-01-07T03:14:12;93399.25;;;7.37;37.42
49999;BME280;68071;45.062;7.356;2024-01-07T03:17:23;93391.59;;;7.29;37.55
49999;BME280;68071;45.062;7.356;2024-01-07T03:20:31;93403.28;;;7.16;38.01
49999;BME280;68071;45.062;7.356;2024-01-07T03:23:36;93401.81;;;7.11;38.62
49999;BME280;68071;45.062;7.356;2024-01-07T03:26:44;93416.41;;;7.08;38.76
49999;BME280;68071;45.062;7.356;2024-01-07T03:29:55;93406.88;;;7.13;38.28
49999;BME280;68071;45.062;7.356;2024-01-07T03:33:01;93407.66;;;7.14;38.66
49999;BME280;68071;45.062;7.356;2024-01-07T03:36:09;93404.31;;;7.06;37.75
49999;BME280;68071;45.062;7.356;2024-01-07T03:39:13;93400.72;;;7.09;39.15
49999;BME280;68071;45.062;7.356;2024-01-07T03:42:23;93414.59;;;6.85;38.87
49999;BME280;68071;45.062;7.356;2024-01-07T03:45:30;93397.53;;;6.94;38.37
49999;BME280;68071;45.062;7.356;2024-01-07T03:48:35;93403.72;;;6.98;37.68
49999;BME280;68071;45.062;7.356;2024-01-07T03:51:39;93393.84;;;7.01;37.39
49999;BME280;68071;45.062;7.356;2024-01-07T03:54:44;93408.88;;;7.13;37.26
49999;BME280;68071;45.062;7.356;2024-01-07T03:57:49;93389.44;;;7.03;37.62
49999;BME280;68071;45.062;7.356;2024-01-07T04:00:53;93394.28;;;6.99;38.25
49999;BME280;68071;45.062;7.356;2024-01-07T04:03:58;93402.22;;;6.93;37.75
49999;BME280;68071;45.062;7.356;2024-01-07T04:07:02;93400.03;;;7.05;37.31
49999;BME280;68071;45.062;7.356;2024-01-07T04:10:07;93402.78;;;7.05;37.28
49999;BME280;68071;45.062;7.356;2024-01-07T04:13:12;93406.47;;;7.15;36.82
49999;BME280;68071;45.062;7.356;2024-01-07T04:16:20;93392.13;;;7.07;36.86
49999;BME280;68071;45.062;7.356;2024-01-07T04:19:25;93403.16;;;6.87;38.41
49999;BME280;68071;45.062;7.356;2024-01-07T04:22:29;93421.56;;;7.06;36.83
49999;BME280;68071;45.062;7.356;2024-01-07T04:25:37;93413.06;;;7.01;37.43
49999;BME280;68071;45.062;7.356;2024-01-07T04:28:42;93406.97;;;7.09;36.95
49999;BME280;68071;45.062;7.356;2024-01-07T04:31:48;93412.91;;;7.08;36.99
49999;BME280;68071;45.062;7.356;2024-01-07T04:35:04;93409.38;;;7.07;36.88
49999;BME280;68071;45.062;7.356;2024-01-07T04:38:15;93407.81;;;7.06;37.18
49999;BME280;68071;45.062;7.356;2024-01-07T04:41:24;93415.91;;;6.97;37.20
49999;BME280;68071;45.062;7.356;2024-01-07T04:44:28;93416.91;;;7.03;36.95
49999;BME280;68071;45.062;7.356;2024-01-07T04:47:37;93418.91;;;7.03;36.63
49999;BME280;68071;45.062;7.356;2024-01-07T04:50:42;93432.78;;;6.95;37.78
49999;BME280;68071;45.062;7.356;2024-01-07T04:53:56;93427.28;;;6.95;37.23
49999;BME280;68071;45.062;7.356;2024-01-07T04:57:06;93454.16;;;7.04;36.57
49999;BME280;68071;45.062;7.356;2024-01-07T05:00:14;93411.25;;;7.10;36.73
49999;BME280;68071;45.062;7.356;2024-01-07T05:03:19;93430.31;;;7.01;37.12
49999;BME280;68071;45.062;7.356;2024-01-07T05:06:28;93437.00;;;7.00;36.77
49999;BME280;68071;45.062;7.356;2024-01-07T05:09:33;93414.53;;;7.05;36.73
49999;BME280;68071;45.062;7.356;2024-01-07T05:12:37;93432.97;;;7.05;37.59
49999;BME280;68071;45.062;7.356;2024-01-07T05:15:42;93435.31;;;7.23;35.87
49999;BME280;68071;45.062;7.356;2024-01-07T05:19:15;93461.47;;;7.11;36.82
49999;BME280;68071;45.062;7.356;2024-01-07T05:22:20;93430.94;;;7.09;36.38
49999;BME280;68071;45.062;7.356;2024-01-07T05:25:26;93424.50;;;6.99;37.33
49999;BME280;68071;45.062;7.356;2024-01-07T05:28:30;93434.19;;;7.04;36.62
49999;BME280;68071;45.062;7.356;2024-01-07T05:31:36;93434.25;;;7.00;37.21
49999;BME280;68071;45.062;7.356;2024-01-07T05:34:44;93438.72;;;6.94;37.54
49999;BME280;68071;45.062;7.356;2024-01-07T05:37:48;93441.03;;;6.95;37.23
49999;BME280;68071;45.062;7.356;2024-01-07T05:40:55;93461.47;;;7.11;36.04
49999;BME280;68071;45.062;7.356;2024-01-07T05:44:00;93435.50;;;7.16;36.11
49999;BME280;68071;45.062;7.356;2024-01-07T05:47:04;93453.31;;;7.07;37.02
49999;BME280;68071;45.062;7.356;2024-01-07T05:50:09;93449.22;;;6.99;36.62
49999;BME280;68071;45.062;7.356;2024-01-07T05:53:15;93448.84;;;6.97;36.34
49999;BME280;68071;45.062;7.356;2024-01-07T05:56:32;93450.81;;;6.96;36.74
49999;BME280;68071;45.062;7.356;2024-01-07T05:59:36;93442.94;;;6.99;36.61
49999;BME280;68071;45.062;7.356;2024-01-07T06:02:57;93455.31;;;7.07;36.19
49999;BME280;68071;45.062;7.356;2024-01-07T06:06:02;93455.13;;;6.97;37.30
49999;BME280;68071;45.062;7.356;2024-01-07T06:09:40;93474.41;;;6.94;37.14
49999;BME280;68071;45.062;7.356;2024-01-07T06:13:06;93459.84;;;6.97;36.79
49999;BME280;68071;45.062;7.356;2024-01-07T06:16:14;93480.63;;;6.98;36.78
49999;BME280;68071;45.062;7.356;2024-01-07T06:19:22;93470.13;;;6.93;37.10
49999;BME280;68071;45.062;7.356;2024-01-07T06:22:26;93481.03;;;6.96;36.70
49999;BME280;68071;45.062;7.356;2024-01-07T06:25:34;93470.75;;;7.01;36.84
49999;BME280;68071;45.062;7.356;2024-01-07T06:28:38;93478.16;;;6.84;37.10
49999;BME280;68071;45.062;7.356;2024-01-07T06:31:44;93484.28;;;6.91;37.04
49999;BME280;68071;45.062;7.356;2024-01-07T06:34:49;93480.25;;;6.96;36.82
49999;BME280;68071;45.062;7.356;2024-01-07T06:37:53;93482.03;;;6.86;37.02
49999;BME280;68071;45.062;7.356;2024-01-07T06:41:01;93499.28;;;6.87;37.28
49999;BME280;68071;45.062;7.356;2024-01-07T06:44:08;93489.44;;;6.89;37.08
49999;BME280;68071;45.062;7.356;2024-01-07T06:47:15;93478.50;;;6.86;37.24
49999;BME280;68071;45.062;7.356;2024-01-07T06:50:20;93490.13;;;6.93;37.29
49999;BME280;68071;45.062;7.356;2024-01-07T06:53:24;93499.75;;;7.02;36.69
49999;BME280;68071;45.062;7.356;2024-01-07T06:56:30;93496.81;;;6.92;37.16
49999;BME280;68071;45.062;7.356;2024-01-07T06:59:34;93490.56;;;6.92;36.87
49999;BME280;68071;45.062;7.356;2024-01-07T07:02:38;93508.09;;;6.98;36.62
49999;BME280;68071;45.062;7.356;2024-01-07T07:05:43;93496.56;;;7.03;36.82
49999;BME280;68071;45.062;7.356;2024-01-07T07:08:47;93514.34;;;6.99;36.64
49999;BME280;68071;45.062;7.356;2024-01-07T07:11:52;93501.03;;;6.97;36.81
49999;BME280;68071;45.062;7.356;2024-01-07T07:14:56;93502.81;;;6.87;37.19
49999;BME280;68071;45.062;7.356;2024-01-07T07:18:01;93512.53;;;6.92;37.01
49999;BME280;68071;45.062;7.356;2024-01-07T07:21:07;93516.38;;;6.94;37.61
49999;BME280;68071;45.062;7.356;2024-01-07T07:24:18;93520.94;;;7.01;36.63
49999;BME280;68071;45.062;7.356;2024-01-07T07:27:25;93505.66;;;7.00;36.89
49999;BME280;68071;45.062;7.356;2024-01-07T07:30:30;93519.00;;;7.02;37.12
49999;BME280;68071;45.062;7.356;2024-01-07T07:33:41;93520.31;;;7.14;36.23
49999;BME280;68071;45.062;7.356;2024-01-07T07:36:45;93522.78;;;7.08;36.91
49999;BME280;68071;45.062;7.356;2024-01-07T07:39:49;93527.75;;;7.13;36.45
49999;BME280;68071;45.062;7.356;2024-01-07T07:42:54;93530.16;;;7.11;36.32
49999;BME280;68071;45.062;7.356;2024-01-07T07:46:01;93540.25;;;7.18;36.19
49999;BME280;68071;45.062;7.356;2024-01-07T07:49:07;93553.41;;;7.06;37.45
49999;BME280;68071;45.062;7.356;2024-01-07T07:52:12;93533.25;;;7.13;37.80
49999;BME280;68071;45.062;7.356;2024-01-07T07:55:28;93530.50;;;7.13;37.23
49999;BME280;68071;45.062;7.356;2024-01-07T07:58:32;93535.16;;;7.16;36.82
49999;BME280;68071;45.062;7.356;2024-01-07T08:01:36;93541.50;;;7.13;37.66
49999;BME280;68071;45.062;7.356;2024-01-07T08:04:41;93561.28;;;7.24;39.18
49999;BME280;68071;45.062;7.356;2024-01-07T08:07:45;93558.06;;;7.09;38.41
49999;BME280;68071;45.062;7.356;2024-01-07T08:10:49;93554.41;;;7.33;38.09
49999;BME280;68071;45.062;7.356;2024-01-07T08:13:54;93555.44;;;7.22;37.33
49999;BME280;68071;45.062;7.356;2024-01-07T08:17:02;93560.75;;;7.30;38.35
49999;BME280;68071;45.062;7.356;2024-01-07T08:20:10;93572.69;;;7.23;37.88
49999;BME280;68071;45.062;7.356;2024-01-07T08:23:14;93565.22;;;7.23;39.00
49999;BME280;68071;45.062;7.356;2024-01-07T08:26:19;93578.19;;;7.23;38.58
49999;BME280;68071;45.062;7.356;2024-01-07T08:29:23;93574.00;;;7.35;37.55
49999;BME280;68071;45.062;7.356;2024-01-07T08:32:28;93580.00;;;7.30;40.95
49999;BME280;68071;45.062;7.356;2024-01-07T08:35:32;93577.47;;;7.39;37.47
49999;BME280;68071;45.062;7.356;2024-01-07T08:38:36;93577.81;;;7.41;45.57
49999;BME280;68071;45.062;7.356;2024-01-07T08:41:39;93581.31;;;7.41;45.59
49999;BME280;68071;45.062;7.356;2024-01-07T08:44:43;93581.94;;;6.92;48.01
49999;BME280;68071;45.062;7.356;2024-01-07T08:47:47;93586.38;;;7.26;37.74
49999;BME280;68071;45.062;7.356;2024-01-07T08:50:51;93581.84;;;7.36;38.70
49999;BME280;68071;45.062;7.356;2024-01-07T08:53:57;93590.41;;;7.38;41.10
49999;BME280;68071;45.062;7.356;2024-01-07T08:57:02;93587.84;;;7.31;41.42
49999;BME280;68071;45.062;7.356;2024-01-07T09:00:07;93603.69;;;7.23;48.46
49999;BME280;68071;45.062;7.356;2024-01-07T09:03:14;93598.63;;;7.22;51.26
49999;BME280;68071;45.062;7.356;2024-01-07T09:06:18;93614.91;;;6.92;51.25
49999;BME280;68071;45.062;7.356;2024-01-07T09:09:22;93603.91;;;6.72;51.77
49999;BME280;68071;45.062;7.356;2024-01-07T09:12:27;93616.59;;;6.86;54.52
49999;BME280;68071;45.062;7.356;2024-01-07T09:15:31;93620.91;;;6.87;56.95
49999;BME280;68071;45.062;7.356;2024-01-07T09:18:35;93620.81;;;6.71;55.34
49999;BME280;68071;45.062;7.356;2024-01-07T09:21:39;93628.88;;;6.58;56.97
49999;BME280;68071;45.062;7.356;2024-01-07T09:24:43;93627.63;;;6.62;55.86
49999;BME280;68071;45.062;7.356;2024-01-07T09:27:47;93632.28;;;6.65;54.84
49999;BME280;68071;45.062;7.356;2024-01-07T09:30:51;93637.75;;;6.89;56.94
49999;BME280;68071;45.062;7.356;2024-01-07T09:33:55;93631.09;;;7.27;54.92
49999;BME280;68071;45.062;7.356;2024-01-07T09:36:59;93634.19;;;7.29;57.66
49999;BME280;68071;45.062;7.356;2024-01-07T09:40:03;93632.16;;;7.33;53.72
49999;BME280;68071;45.062;7.356;2024-01-07T09:43:10;93633.28;;;6.95;54.33
49999;BME280;68071;45.062;7.356;2024-01-07T09:46:15;93629.06;;;7.11;54.53
49999;BME280;68071;45.062;7.356;2024-01-07T09:49:19;93640.41;;;7.13;54.07
49999;BME280;68071;45.062;7.356;2024-01-07T09:52:24;93647.31;;;7.58;55.16
49999;BME280;68071;45.062;7.356;2024-01-07T09:56:07;93647.41;;;7.91;53.32
49999;BME280;68071;45.062;7.356;2024-01-07T09:59:08;93645.78;;;7.94;53.60
49999;BME280;68071;45.062;7.356;2024-01-07T10:02:12;93651.72;;;7.92;53.50
49999;BME280;68071;45.062;7.356;2024-01-07T10:05:16;93643.38;;;7.96;53.98
49999;BME280;68071;45.062;7.356;2024-01-07T10:08:20;93645.78;;;7.94;53.38
49999;BME280;68071;45.062;7.356;2024-01-07T10:11:24;93645.97;;;8.03;53.84
49999;BME280;68071;45.062;7.356;2024-01-07T10:14:29;93646.63;;;8.24;51.98
49999;BME280;68071;45.062;7.356;2024-01-07T10:17:33;93659.22;;;8.41;52.67
49999;BME280;68071;45.062;7.356;2024-01-07T10:20:37;93652.13;;;7.91;55.71
49999;BME280;68071;45.062;7.356;2024-01-07T10:23:41;93647.34;;;8.28;56.22
49999;BME280;68071;45.062;7.356;2024-01-07T10:26:45;93656.88;;;8.40;54.88
49999;BME280;68071;45.062;7.356;2024-01-07T10:29:50;93650.44;;;8.63;51.57
49999;BME280;68071;45.062;7.356;2024-01-07T10:32:58;93652.78;;;8.65;52.10
49999;BME280;68071;45.062;7.356;2024-01-07T10:36:05;93648.84;;;7.79;54.80
49999;BME280;68071;45.062;7.356;2024-01-07T10:39:09;93643.69;;;7.81;54.74
49999;BME280;68071;45.062;7.356;2024-01-07T10:42:14;93649.22;;;8.14;52.53
49999;BME280;68071;45.062;7.356;2024-01-07T10:45:20;93648.44;;;7.97;52.38
49999;BME280;68071;45.062;7.356;2024-01-07T10:48:26;93648.28;;;8.21;52.95
49999;BME280;68071;45.062;7.356;2024-01-07T10:51:34;93633.16;;;8.46;51.90
49999;BME280;68071;45.062;7.356;2024-01-07T10:54:39;93625.81;;;8.72;50.95
49999;BME280;68071;45.062;7.356;2024-01-07T10:57:46;93631.72;;;8.87;51.20
49999;BME280;68071;45.062;7.356;2024-01-07T11:00:51;93630.03;;;9.06;48.10
49999;BME280;68071;45.062;7.356;2024-01-07T11:04:22;93631.22;;;9.05;47.27
49999;BME280;68071;45.062;7.356;2024-01-07T11:07:54;93631.28;;;8.89;48.07
49999;BME280;68071;45.062;7.356;2024-01-07T11:11:06;93623.78;;;8.60;37.51
49999;BME280;68071;45.062;7.356;2024-01-07T11:14:33;93612.16;;;8.52;43.02
49999;BME280;68071;45.062;7.356;2024-01-07T11:20:41;93616.94;;;8.81;45.04
49999;BME280;68071;45.062;7.356;2024-01-07T11:23:46;93601.59;;;8.80;37.61
49999;BME280;68071;45.062;7.356;2024-01-07T11:26:50;93597.00;;;8.90;36.79
49999;BME280;68071;45.062;7.356;2024-01-07T11:30:07;93601.50;;;8.84;35.34
49999;BME280;68071;45.062;7.356;2024-01-07T11:33:21;93619.16;;;8.86;36.33
49999;BME280;68071;45.062;7.356;2024-01-07T11:36:26;93592.81;;;8.85;36.31
49999;BME280;68071;45.062;7.356;2024-01-07T11:39:30;93585.13;;;8.93;35.36
49999;BME280;68071;45.062;7.356;2024-01-07T11:42:37;93579.81;;;8.86;35.66
49999;BME280;68071;45.062;7.356;2024-01-07T11:45:42;93581.34;;;8.87;35.22
49999;BME280;68071;45.062;7.356;2024-01-07T11:48:46;93586.22;;;8.96;34.73
49999;BME280;68071;45.062;7.356;2024-01-07T11:51:50;93585.03;;;8.97;34.65
49999;BME280;68071;45.062;7.356;2024-01-07T11:54:55;93578.75;;;8.96;34.92
49999;BME280;68071;45.062;7.356;2024-01-07T11:58:01;93589.78;;;8.96;34.59
49999;BME280;68071;45.062;7.356;2024-01-07T12:01:06;93581.84;;;9.11;34.68
49999;BME280;68071;45.062;7.356;2024-01-07T12:04:10;93584.63;;;9.11;34.20
49999;BME280;68071;45.062;7.356;2024-01-07T12:07:16;93582.97;;;9.14;35.75
49999;BME280;68071;45.062;7.356;2024-01-07T12:10:20;93577.38;;;9.17;34.73
49999;BME280;68071;45.062;7.356;2024-01-07T12:13:24;93576.13;;;9.05;34.71
49999;BME280;68071;45.062;7.356;2024-01-07T12:16:29;93587.50;;;9.20;35.37
49999;BME280;68071;45.062;7.356;2024-01-07T12:19:32;93587.94;;;9.19;34.33
49999;BME280;68071;45.062;7.356;2024-01-07T12:22:40;93578.03;;;9.21;34.03
49999;BME280;68071;45.062;7.356;2024-01-07T12:25:44;93599.31;;;9.21;34.26
49999;BME280;68071;45.062;7.356;2024-01-07T12:28:55;93588.66;;;9.36;34.31
49999;BME280;68071;45.062;7.356;2024-01-07T12:32:00;93593.47;;;9.32;34.47
49999;BME280;68071;45.062;7.356;2024-01-07T12:35:07;93594.94;;;9.49;35.00
49999;BME280;68071;45.062;7.356;2024-01-07T12:38:12;93590.63;;;9.35;34.61
49999;BME280;68071;45.062;7.356;2024-01-07T12:41:17;93597.78;;;9.33;35.89
49999;BME280;68071;45.062;7.356;2024-01-07T12:44:29;93591.59;;;9.16;42.98
49999;BME280;68071;45.062;7.356;2024-01-07T12:47:32;93603.38;;;8.87;49.55
49999;BME280;68071;45.062;7.356;2024-01-07T12:50:37;93592.16;;;9.23;50.44
49999;BME280;68071;45.062;7.356;2024-01-07T12:53:41;93589.72;;;9.13;56.07
49999;BME280;68071;45.062;7.356;2024-01-07T12:56:45;93601.59;;;9.10;54.86
49999;BME280;68071;45.062;7.356;2024-01-07T12:59:49;93608.34;;;9.21;51.58
49999;BME280;68071;45.062;7.356;2024-01-07T13:02:53;93606.91;;;9.17;50.21
49999;BME280;68071;45.062;7.356;2024-01-07T13:05:57;93604.16;;;9.17;50.74
49999;BME280;68071;45.062;7.356;2024-01-07T13:09:02;93601.59;;;9.10;50.91
49999;BME280;68071;45.062;7.356;2024-01-07T13:12:07;93600.38;;;9.11;50.61
49999;BME280;68071;45.062;7.356;2024-01-07T13:15:12;93600.97;;;9.18;51.20
49999;BME280;68071;45.062;7.356;2024-01-07T13:18:17;93598.94;;;9.61;49.54
49999;BME280;68071;45.062;7.356;2024-01-07T13:21:21;93594.31;;;9.84;50.54
49999;BME280;68071;45.062;7.356;2024-01-07T13:24:25;93597.72;;;9.62;50.98
49999;BME280;68071;45.062;7.356;2024-01-07T13:27:29;93594.84;;;9.40;51.83
49999;BME280;68071;45.062;7.356;2024-01-07T13:30:33;93604.63;;;9.28;51.29
49999;BME280;68071;45.062;7.356;2024-01-07T13:33:38;93593.84;;;9.47;50.25
49999;BME280;68071;45.062;7.356;2024-01-07T13:36:42;93606.31;;;8.96;52.65
49999;BME280;68071;45.062;7.356;2024-01-07T13:39:47;93590.25;;;8.78;54.62
49999;BME280;68071;45.062;7.356;2024-01-07T13:42:53;93606.03;;;8.90;48.74
49999;BME280;68071;45.062;7.356;2024-01-07T13:45:57;93610.63;;;8.81;51.73
49999;BME280;68071;45.062;7.356;2024-01-07T13:49:01;93602.81;;;9.08;52.62
49999;BME280;68071;45.062;7.356;2024-01-07T13:52:05;93616.75;;;8.72;54.61
49999;BME280;68071;45.062;7.356;2024-01-07T13:55:09;93606.78;;;9.07;45.53
49999;BME280;68071;45.062;7.356;2024-01-07T13:58:13;93619.75;;;8.94;42.58
49999;BME280;68071;45.062;7.356;2024-01-07T14:01:18;93620.72;;;8.87;39.33
49999;BME280;68071;45.062;7.356;2024-01-07T14:04:23;93619.97;;;8.70;48.35
49999;BME280;68071;45.062;7.356;2024-01-07T14:07:28;93628.94;;;9.04;50.87
49999;BME280;68071;45.062;7.356;2024-01-07T14:10:32;93623.84;;;9.02;52.08
49999;BME280;68071;45.062;7.356;2024-01-07T14:13:36;93627.44;;;8.99;53.14
49999;BME280;68071;45.062;7.356;2024-01-07T14:16:40;93631.81;;;8.84;48.36
49999;BME280;68071;45.062;7.356;2024-01-07T14:19:45;93634.97;;;8.53;46.63
49999;BME280;68071;45.062;7.356;2024-01-07T14:22:51;93627.63;;;8.62;51.02
49999;BME280;68071;45.062;7.356;2024-01-07T14:25:55;93633.41;;;8.68;50.99
49999;BME280;68071;45.062;7.356;2024-01-07T14:29:00;93646.31;;;8.71;52.55
49999;BME280;68071;45.062;7.356;2024-01-07T14:32:05;93643.38;;;8.62;44.57
49999;BME280;68071;45.062;7.356;2024-01-07T14:35:11;93641.06;;;8.60;40.21
49999;BME280;68071;45.062;7.356;2024-01-07T14:38:16;93644.16;;;8.46;42.40
49999;BME280;68071;45.062;7.356;2024-01-07T14:41:20;93648.13;;;8.61;40.85
49999;BME280;68071;45.062;7.356;2024-01-07T14:44:25;93656.38;;;8.61;40.47
49999;BME280;68071;45.062;7.356;2024-01-07T14:47:29;93650.09;;;8.61;36.69
49999;BME280;68071;45.062;7.356;2024-01-07T14:50:33;93667.16;;;8.56;37.56
49999;BME280;68071;45.062;7.356;2024-01-07T14:53:36;93663.44;;;8.62;36.41
49999;BME280;68071;45.062;7.356;2024-01-07T14:56:40;93669.47;;;8.57;36.51
49999;BME280;68071;45.062;7.356;2024-01-07T14:59:46;93679.03;;;8.53;36.40
49999;BME280;68071;45.062;7.356;2024-01-07T15:02:50;93679.03;;;8.53;36.74
49999;BME280;68071;45.062;7.356;2024-01-07T15:05:55;93686.09;;;8.54;35.68
49999;BME280;68071;45.062;7.356;2024-01-07T15:09:00;93681.50;;;8.47;36.19
49999;BME280;68071;45.062;7.356;2024-01-07T15:12:06;93676.50;;;8.42;36.44
49999;BME280;68071;45.062;7.356;2024-01-07T15:15:11;93685.88;;;8.44;35.79
49999;BME280;68071;45.062;7.356;2024-01-07T15:18:16;93689.75;;;8.47;35.84
49999;BME280;68071;45.062;7.356;2024-01-07T15:21:26;93689.16;;;8.39;36.48
49999;BME280;68071;45.062;7.356;2024-01-07T15:24:30;93702.13;;;8.39;36.14
49999;BME280;68071;45.062;7.356;2024-01-07T15:27:34;93698.69;;;8.35;36.21
49999;BME280;68071;45.062;7.356;2024-01-07T15:30:39;93707.91;;;8.44;35.72
49999;BME280;68071;45.062;7.356;2024-01-07T15:33:44;93700.25;;;8.36;37.19
49999;BME280;68071;45.062;7.356;2024-01-07T15:36:48;93710.84;;;8.37;35.99
49999;BME280;68071;45.062;7.356;2024-01-07T15:39:55;93717.97;;;8.35;36.02
49999;BME280;68071;45.062;7.356;2024-01-07T15:43:00;93715.66;;;8.33;35.89
49999;BME280;68071;45.062;7.356;2024-01-07T15:46:05;93728.56;;;8.36;35.22
49999;BME280;68071;45.062;7.356;2024-01-07T15:49:12;93739.47;;;8.23;35.89
49999;BME280;68071;45.062;7.356;2024-01-07T15:52:25;93739.22;;;8.34;35.72
49999;BME280;68071;45.062;7.356;2024-01-07T15:55:32;93729.84;;;8.31;36.75
49999;BME280;68071;45.062;7.356;2024-01-07T15:58:45;93738.00;;;8.18;36.57
49999;BME280;68071;45.062;7.356;2024-01-07T16:01:50;93733.94;;;8.07;37.13
49999;BME280;68071;45.062;7.356;2024-01-07T16:04:54;93739.97;;;8.18;36.25
49999;BME280;68071;45.062;7.356;2024-01-07T16:07:58;93741.50;;;8.19;36.75
49999;BME280;68071;45.062;7.356;2024-01-07T16:11:03;93752.34;;;8.10;37.42
49999;BME280;68071;45.062;7.356;2024-01-07T16:14:08;93756.81;;;8.20;36.82
49999;BME280;68071;45.062;7.356;2024-01-07T16:17:12;93759.97;;;8.02;37.60
49999;BME280;68071;45.062;7.356;2024-01-07T16:20:16;93763.84;;;8.05;37.09
49999;BME280;68071;45.062;7.356;2024-01-07T16:23:20;93754.38;;;8.06;37.35
49999;BME280;68071;45.062;7.356;2024-01-07T16:26:24;93770.97;;;8.02;37.71
49999;BME280;68071;45.062;7.356;2024-01-07T16:29:28;93775.47;;;8.12;37.25
49999;BME280;68071;45.062;7.356;2024-01-07T16:32:32;93768.06;;;8.09;37.23
49999;BME280;68071;45.062;7.356;2024-01-07T16:35:36;93776.66;;;8.11;36.68
49999;BME280;68071;45.062;7.356;2024-01-07T16:38:43;93768.00;;;7.93;37.16
49999;BME280;68071;45.062;7.356;2024-01-07T16:41:50;93769.38;;;7.84;38.56